KMRN

Foothills Regional Airport

Morganton, North Carolina, USA
METAR KMRN 170545Z AUTO 00000KT 10SM CLR M02/M04 A3026 RMK AO2 T10221037
Observed Flight Rules
Dec-17 @ 05:45 UTC (23 minutes ago) Visual Flight Rules
Wind Visibility Clouds
Calm 10 miles
  • Clear skies
Temperatures Readings
Current -2°C / 28°F
Dewpoint -4°C / 25°F
Humidity 86%
Altimeter 30.26" Hg
Pressure 1025 hPa
Elevation 387
METAR KMRN 170545Z AUTO 00000KT 10SM CLR M02/M04 A3026 RMK AO2 T10221037
Observed Flight Rules
Dec-17 @ 05:45 UTC
(23 minutes ago)
VFR
Wind Visibility
Calm 10 miles
Clouds
  • Clear skies
Temperature Dewpoint
-2°C / 28°F -4°C / 25°F
Humidity Altimeter Pressure
86% 30.26" Hg 1025 hPa